createdAt,value
2019-04-29T00:01:28.726Z,3.20
2019-04-29T00:03:58.048Z,4.83
2019-04-29T00:06:27.435Z,7.53
2019-04-29T00:08:56.752Z,7.80
2019-04-29T00:11:26.050Z,9.07
2019-04-29T00:13:55.819Z,10.70
2019-04-29T00:16:31.503Z,10.83
2019-04-29T00:19:02.459Z,9.77
2019-04-29T00:21:31.827Z,12.23
2019-04-29T00:24:04.048Z,10.77
2019-04-29T00:26:32.548Z,10.57
2019-04-29T00:29:03.107Z,9.27
2019-04-29T00:31:33.746Z,9.67
2019-04-29T00:34:03.063Z,11.20
2019-04-29T00:36:34.016Z,12.03
2019-04-29T00:39:24.964Z,12.00
2019-04-29T00:41:58.962Z,12.80
2019-04-29T00:44:28.280Z,13.00
2019-04-29T00:46:57.591Z,12.37
2019-04-29T00:49:27.130Z,10.07
2019-04-29T00:51:56.446Z,13.57
2019-04-29T00:54:27.412Z,12.33
2019-04-29T00:56:56.755Z,11.90
2019-04-29T00:59:26.075Z,11.43
2019-04-29T01:01:55.435Z,11.33
2019-04-29T01:04:24.840Z,13.73
2019-04-29T01:06:54.163Z,13.60
2019-04-29T01:09:23.481Z,13.30
2019-04-29T01:11:52.823Z,17.47
2019-04-29T01:14:22.139Z,15.33
2019-04-29T01:16:51.523Z,13.23
2019-04-29T01:19:20.897Z,12.70
2019-04-29T01:21:50.239Z,16.00
2019-04-29T01:24:19.580Z,14.80
2019-04-29T01:26:50.543Z,16.67
2019-04-29T01:29:21.503Z,14.23
2019-04-29T01:31:50.827Z,15.97
2019-04-29T01:34:24.733Z,14.67
2019-04-29T01:36:54.056Z,14.93
2019-04-29T01:39:26.558Z,15.53
2019-04-29T01:42:00.258Z,17.33
2019-04-29T01:44:31.227Z,9.60
2019-04-29T01:47:00.556Z,7.70
2019-04-29T01:49:29.863Z,7.87
2019-04-29T01:51:59.191Z,8.37
2019-04-29T01:54:28.500Z,10.53
2019-04-29T01:56:57.830Z,11.67
2019-04-29T01:59:27.223Z,16.00
2019-04-29T02:01:56.564Z,16.23
2019-04-29T02:04:25.892Z,22.57
2019-04-29T02:06:55.203Z,16.70
2019-04-29T02:09:29.219Z,16.40
2019-04-29T02:11:58.539Z,20.63
2019-04-29T02:14:27.870Z,19.90
2019-04-29T02:16:57.187Z,20.43
2019-04-29T02:19:26.516Z,18.80
2019-04-29T02:22:09.539Z,18.53
2019-04-29T02:24:40.720Z,17.00
2019-04-29T02:27:10.061Z,17.47
2019-04-29T02:29:39.387Z,17.83
2019-04-29T02:32:08.711Z,14.43
2019-04-29T02:34:38.098Z,15.43
2019-04-29T02:37:09.076Z,16.20
2019-04-29T02:39:40.068Z,16.67
2019-04-29T02:42:27.253Z,16.07
2019-04-29T02:44:58.158Z,18.97
2019-04-29T02:47:27.548Z,22.13
2019-04-29T02:49:56.874Z,21.70
2019-04-29T02:52:26.209Z,22.73
2019-04-29T02:54:57.247Z,22.77
2019-04-29T02:57:28.206Z,23.60
2019-04-29T03:00:05.410Z,26.47
2019-04-29T03:02:36.737Z,24.43
2019-04-29T03:05:10.522Z,23.87
2019-04-29T03:07:40.085Z,26.23
2019-04-29T03:10:09.831Z,26.87
2019-04-29T03:12:39.951Z,26.50
2019-04-29T03:15:09.724Z,23.30
2019-04-29T03:17:39.212Z,22.07
2019-04-29T03:20:10.620Z,21.23
2019-04-29T03:22:41.647Z,23.37
2019-04-29T03:25:11.414Z,26.10
2019-04-29T03:27:40.814Z,25.03
2019-04-29T03:30:10.693Z,24.33
2019-04-29T03:32:40.080Z,25.30
2019-04-29T03:35:09.606Z,24.50
2019-04-29T03:37:38.995Z,27.30
2019-04-29T03:40:08.769Z,21.80
2019-04-29T03:42:39.120Z,23.53
2019-04-29T03:45:08.569Z,22.77
2019-04-29T03:47:37.893Z,27.87
2019-04-29T03:50:07.289Z,25.37
2019-04-29T03:52:36.608Z,26.73
2019-04-29T03:55:06.848Z,32.60
2019-04-29T03:57:37.339Z,26.67
2019-04-29T04:00:12.964Z,25.77
2019-04-29T04:02:43.924Z,25.20
2019-04-29T04:05:14.902Z,26.37
2019-04-29T04:07:55.016Z,23.13
2019-04-29T04:10:24.561Z,24.20
2019-04-29T04:12:53.879Z,26.73
2019-04-29T04:15:23.212Z,26.30
2019-04-29T04:18:00.221Z,27.30
2019-04-29T04:20:29.579Z,28.03
2019-04-29T04:22:58.910Z,27.93
2019-04-29T04:25:28.242Z,29.13
2019-04-29T04:27:57.557Z,30.33
2019-04-29T04:30:27.856Z,34.60
2019-04-29T04:32:57.185Z,34.10
2019-04-29T04:35:26.540Z,28.97
2019-04-29T04:37:55.865Z,35.63
2019-04-29T04:40:29.524Z,30.67
2019-04-29T04:42:58.867Z,32.23
2019-04-29T04:45:28.196Z,36.50
2019-04-29T04:47:57.530Z,37.90
2019-04-29T04:50:26.992Z,38.60
2019-04-29T04:52:56.396Z,41.00
2019-04-29T04:55:27.355Z,33.40
2019-04-29T04:57:56.688Z,38.43
2019-04-29T05:00:28.736Z,38.13
2019-04-29T05:02:58.097Z,33.53
2019-04-29T05:05:27.480Z,41.60
2019-04-29T05:07:56.811Z,39.47
2019-04-29T05:10:26.132Z,35.63
2019-04-29T05:12:55.464Z,38.60
2019-04-29T05:15:24.783Z,40.13
2019-04-29T05:17:54.138Z,36.50
2019-04-29T05:20:23.512Z,35.17
2019-04-29T05:22:58.976Z,41.60
2019-04-29T05:25:30.006Z,36.03
2019-04-29T05:27:59.331Z,36.23
2019-04-29T05:30:29.094Z,37.57
2019-04-29T05:32:58.428Z,37.27
2019-04-29T05:35:29.389Z,34.37
2019-04-29T05:38:00.360Z,34.63
2019-04-29T05:40:40.143Z,36.00
2019-04-29T05:43:17.012Z,36.70
2019-04-29T05:46:03.043Z,31.57
2019-04-29T05:48:33.242Z,30.37
2019-04-29T05:51:16.510Z,37.53
2019-04-29T05:53:54.857Z,33.73
2019-04-29T05:56:21.229Z,35.17
2019-04-29T05:58:50.564Z,38.03
2019-04-29T06:01:21.524Z,36.87
2019-04-29T06:03:51.090Z,36.03
2019-04-29T06:06:20.560Z,38.87
2019-04-29T06:08:49.891Z,39.40
2019-04-29T06:11:19.215Z,37.70
2019-04-29T06:13:48.544Z,35.43
2019-04-29T06:16:21.072Z,41.10
2019-04-29T06:18:49.798Z,38.87
2019-04-29T06:21:19.291Z,39.10
2019-04-29T06:23:48.716Z,44.53
2019-04-29T06:26:18.035Z,39.10
2019-04-29T06:28:47.372Z,42.20
2019-04-29T06:31:16.690Z,40.10
2019-04-29T06:33:46.019Z,40.37
2019-04-29T06:36:15.346Z,43.30
2019-04-29T06:38:44.688Z,46.37
2019-04-29T06:41:14.076Z,41.50
2019-04-29T06:43:43.395Z,43.23
2019-04-29T06:46:12.797Z,49.43
2019-04-29T06:48:42.121Z,48.70
2019-04-29T06:51:11.443Z,47.43
2019-04-29T06:53:40.776Z,48.60
2019-04-29T06:56:10.116Z,48.73
2019-04-29T06:58:39.443Z,44.90
2019-04-29T07:01:08.779Z,44.70
2019-04-29T07:03:38.108Z,44.77
2019-04-29T07:06:07.444Z,47.33
2019-04-29T07:08:36.777Z,45.43
2019-04-29T07:11:06.160Z,45.13
2019-04-29T07:13:35.631Z,47.33
2019-04-29T07:16:05.027Z,48.70
2019-04-29T07:18:34.348Z,42.33
2019-04-29T07:21:07.434Z,40.17
2019-04-29T07:23:34.751Z,39.80
2019-04-29T07:26:05.055Z,32.97
2019-04-29T07:28:34.392Z,29.27
2019-04-29T07:31:03.739Z,23.40
2019-04-29T07:33:33.090Z,24.53
2019-04-29T07:36:10.725Z,23.37
2019-04-29T07:38:41.375Z,21.47
2019-04-29T07:41:04.557Z,23.63
2019-04-29T07:43:33.987Z,17.83
2019-04-29T07:46:05.562Z,18.30
2019-04-29T07:48:37.000Z,17.37
2019-04-29T07:51:06.263Z,17.00
2019-04-29T07:53:44.710Z,16.93
2019-04-29T07:56:08.171Z,18.53
2019-04-29T07:58:37.739Z,15.57
2019-04-29T08:01:07.156Z,16.93
2019-04-29T08:03:36.493Z,18.93
2019-04-29T08:06:05.882Z,17.37
2019-04-29T08:08:35.219Z,18.37
2019-04-29T08:11:04.624Z,15.03
2019-04-29T08:13:34.695Z,14.50
2019-04-29T08:16:04.210Z,13.63
2019-04-29T08:18:33.539Z,13.20
2019-04-29T08:21:02.859Z,11.83
2019-04-29T08:23:33.089Z,13.13
2019-04-29T08:26:04.533Z,9.53
2019-04-29T08:28:34.059Z,11.23
2019-04-29T08:31:03.375Z,11.43
2019-04-29T08:33:32.715Z,11.23
2019-04-29T08:36:02.027Z,9.33
2019-04-29T08:38:31.361Z,13.30
2019-04-29T08:41:00.681Z,11.83
2019-04-29T08:43:34.664Z,12.23
2019-04-29T08:46:14.823Z,7.60
2019-04-29T08:48:45.894Z,7.83
2019-04-29T08:51:16.127Z,7.83
2019-04-29T08:53:45.457Z,9.80
2019-04-29T08:56:14.779Z,8.93
2019-04-29T08:58:48.858Z,9.70
2019-04-29T09:01:15.124Z,8.53
2019-04-29T09:03:44.447Z,9.23
2019-04-29T09:06:13.769Z,11.77
2019-04-29T09:08:54.476Z,12.47
2019-04-29T09:11:14.554Z,10.73
2019-04-29T09:13:44.027Z,10.90
2019-04-29T09:16:13.352Z,9.97
2019-04-29T09:18:42.699Z,10.50
2019-04-29T09:21:12.033Z,10.50
2019-04-29T09:23:41.520Z,10.33
2019-04-29T09:26:12.484Z,9.73
2019-04-29T09:28:41.843Z,11.50
2019-04-29T09:31:11.176Z,13.43
2019-04-29T09:33:44.223Z,12.17
2019-04-29T09:36:13.963Z,11.07
2019-04-29T09:38:42.585Z,10.40
2019-04-29T09:41:19.480Z,15.87
2019-04-29T09:43:50.443Z,11.00
2019-04-29T09:46:24.363Z,10.17
2019-04-29T09:48:53.708Z,10.20
2019-04-29T09:51:27.982Z,9.30
2019-04-29T09:53:54.120Z,13.17
2019-04-29T09:56:23.452Z,11.20
2019-04-29T09:58:54.416Z,10.43
2019-04-29T10:01:40.503Z,10.07
2019-04-29T10:04:28.178Z,11.37
2019-04-29T10:06:58.579Z,12.67
2019-04-29T10:09:27.916Z,11.83
2019-04-29T10:11:57.308Z,13.00
2019-04-29T10:14:26.631Z,11.70
2019-04-29T10:16:57.599Z,11.70
2019-04-29T10:19:28.563Z,10.40
2019-04-29T10:21:57.895Z,11.40
2019-04-29T10:24:27.215Z,10.10
2019-04-29T10:26:56.549Z,9.47
2019-04-29T10:29:27.511Z,8.80
2019-04-29T10:31:56.908Z,10.23
2019-04-29T10:34:31.635Z,10.10
2019-04-29T10:36:58.708Z,11.03
2019-04-29T10:39:47.727Z,10.80
2019-04-29T10:42:37.004Z,12.43
2019-04-29T10:45:11.420Z,11.73
2019-04-29T10:47:48.027Z,9.93
2019-04-29T10:50:23.884Z,10.03
2019-04-29T10:52:53.568Z,10.20
2019-04-29T10:55:25.535Z,13.37
2019-04-29T10:57:54.173Z,13.63
2019-04-29T11:00:39.853Z,12.73
2019-04-29T11:03:09.188Z,12.73
2019-04-29T11:05:44.503Z,12.97
2019-04-29T11:08:13.063Z,14.17
2019-04-29T11:10:42.388Z,12.60
2019-04-29T11:13:11.786Z,13.07
2019-04-29T11:15:44.961Z,10.13
2019-04-29T11:18:12.226Z,13.30
2019-04-29T11:20:44.469Z,11.63
2019-04-29T11:23:17.919Z,12.03
2019-04-29T11:26:03.983Z,12.27
2019-04-29T11:28:34.237Z,9.30
2019-04-29T11:31:03.572Z,13.00
2019-04-29T11:33:49.441Z,13.47
2019-04-29T11:36:20.409Z,13.17
2019-04-29T11:38:49.817Z,13.17
2019-04-29T11:41:19.972Z,13.10
2019-04-29T11:43:50.983Z,13.30
2019-04-29T11:46:22.809Z,11.17
2019-04-29T11:48:53.784Z,15.53
2019-04-29T11:51:48.594Z,13.97
2019-04-29T11:54:08.372Z,11.37
2019-04-29T11:56:39.742Z,13.83
2019-04-29T11:59:29.527Z,13.67
2019-04-29T12:02:12.574Z,13.40
2019-04-29T12:04:49.451Z,12.03
2019-04-29T12:07:21.159Z,11.87
2019-04-29T12:09:50.806Z,12.63
2019-04-29T12:12:21.300Z,12.63
2019-04-29T12:15:04.507Z,14.43
2019-04-29T12:17:36.443Z,13.70
2019-04-29T12:20:13.437Z,14.77
2019-04-29T12:22:48.492Z,13.97
2019-04-29T12:25:13.968Z,14.73
2019-04-29T12:27:43.311Z,18.73
2019-04-29T12:30:14.794Z,18.70
2019-04-29T12:32:48.472Z,18.33
2019-04-29T12:35:21.621Z,22.67
2019-04-29T12:38:11.203Z,19.17
2019-04-29T12:40:57.528Z,15.73
2019-04-29T12:43:28.494Z,18.87
2019-04-29T12:45:59.472Z,19.07
2019-04-29T12:48:28.903Z,20.07
2019-04-29T12:50:58.243Z,19.90
2019-04-29T12:53:27.590Z,19.77
2019-04-29T12:55:57.348Z,22.27
2019-04-29T12:58:26.681Z,18.87
2019-04-29T13:01:01.217Z,19.47
2019-04-29T13:03:38.600Z,25.60
2019-04-29T13:06:09.764Z,24.10
2019-04-29T13:08:57.235Z,26.23
2019-04-29T13:11:36.071Z,22.90
2019-04-29T13:14:01.830Z,21.33
2019-04-29T13:16:32.815Z,23.30
2019-04-29T13:19:12.279Z,22.37
2019-04-29T13:21:39.483Z,24.07
2019-04-29T13:24:17.992Z,21.07
2019-04-29T13:26:42.470Z,26.80
2019-04-29T13:29:25.838Z,25.13
2019-04-29T13:31:41.992Z,26.63
2019-04-29T13:34:23.524Z,25.83
2019-04-29T13:36:44.219Z,22.97
2019-04-29T13:39:13.756Z,24.10
2019-04-29T13:41:57.010Z,22.80
2019-04-29T13:44:19.260Z,25.07
2019-04-29T13:46:54.052Z,30.07
2019-04-29T13:49:34.254Z,23.80
2019-04-29T13:52:05.578Z,25.30
2019-04-29T13:54:37.306Z,28.93
2019-04-29T13:57:11.358Z,25.13
2019-04-29T13:59:49.394Z,25.23
2019-04-29T14:02:22.720Z,23.93
2019-04-29T14:04:51.859Z,25.57
2019-04-29T14:07:21.196Z,24.37
2019-04-29T14:09:50.549Z,30.33
2019-04-29T14:14:53.971Z,37.20
2019-04-29T14:17:26.413Z,28.03
2019-04-29T14:19:53.033Z,27.87
2019-04-29T14:22:22.863Z,28.90
2019-04-29T14:24:52.375Z,29.47
2019-04-29T14:27:25.229Z,28.70
2019-04-29T14:29:53.075Z,30.50
2019-04-29T14:32:33.443Z,31.33
2019-04-29T14:35:01.087Z,29.13
2019-04-29T14:37:30.423Z,30.17
2019-04-29T14:40:02.857Z,32.07
2019-04-29T14:42:38.624Z,28.83
2019-04-29T14:45:21.718Z,29.83
2019-04-29T14:48:08.908Z,32.27
2019-04-29T14:50:38.412Z,28.23
2019-04-29T14:53:07.748Z,26.93
2019-04-29T14:55:37.082Z,28.77
2019-04-29T14:58:06.416Z,27.80
2019-04-29T15:00:46.202Z,36.83
2019-04-29T15:03:15.698Z,33.30
2019-04-29T15:05:45.111Z,29.17
2019-04-29T15:08:14.492Z,31.77
2019-04-29T15:10:45.463Z,30.57
2019-04-29T15:13:21.207Z,33.30
2019-04-29T15:16:03.545Z,34.20
2019-04-29T15:18:45.915Z,34.03
2019-04-29T15:21:31.466Z,31.17
2019-04-29T15:23:50.508Z,31.87
2019-04-29T15:26:20.415Z,35.07
2019-04-29T15:28:52.625Z,37.30
2019-04-29T15:31:23.224Z,37.40
2019-04-29T15:33:52.865Z,35.50
2019-04-29T15:36:22.326Z,36.33
2019-04-29T15:39:08.210Z,34.60
2019-04-29T15:41:29.481Z,36.27
2019-04-29T15:44:06.423Z,40.50
2019-04-29T15:46:24.762Z,42.70
2019-04-29T15:48:54.089Z,43.13
2019-04-29T15:51:23.439Z,43.53
2019-04-29T15:53:54.527Z,43.33
2019-04-29T15:56:28.688Z,39.67
2019-04-29T15:58:59.000Z,44.70
2019-04-29T16:01:28.253Z,45.03
2019-04-29T16:03:59.740Z,43.93
2019-04-29T16:06:47.215Z,47.23
2019-04-29T16:09:18.181Z,45.37
2019-04-29T16:11:49.234Z,41.63
2019-04-29T16:14:20.199Z,41.23
2019-04-29T16:16:49.535Z,43.60
2019-04-29T16:19:18.859Z,42.10
2019-04-29T16:21:48.199Z,43.87
2019-04-29T16:24:26.540Z,45.27
2019-04-29T16:26:53.434Z,49.93
2019-04-29T16:29:20.651Z,51.53
2019-04-29T16:31:54.967Z,46.87
2019-04-29T16:34:21.102Z,49.53
2019-04-29T16:36:52.579Z,46.87
2019-04-29T16:39:21.523Z,47.97
2019-04-29T16:42:07.707Z,50.30
2019-04-29T16:44:37.381Z,49.97
2019-04-29T16:47:13.318Z,49.30
2019-04-29T16:49:39.605Z,50.23
2019-04-29T16:52:08.995Z,50.07
2019-04-29T16:54:38.320Z,51.30
2019-04-29T16:57:07.656Z,47.40
2019-04-29T16:59:36.980Z,49.03
2019-04-29T17:02:06.492Z,45.43
2019-04-29T17:04:35.814Z,56.43
2019-04-29T17:07:13.830Z,49.13
2019-04-29T17:09:47.268Z,52.93
2019-04-29T17:12:16.780Z,56.07
2019-04-29T17:15:03.125Z,57.43
2019-04-29T17:17:18.771Z,53.40
2019-04-29T17:19:48.110Z,56.80
2019-04-29T17:22:27.740Z,59.30
2019-04-29T17:24:51.878Z,63.30
2019-04-29T17:27:22.920Z,55.53
2019-04-29T17:30:07.677Z,59.93
2019-04-29T17:32:44.941Z,60.73
2019-04-29T17:35:11.820Z,59.20
2019-04-29T17:37:41.411Z,60.30
2019-04-29T17:40:12.727Z,61.00
2019-04-29T17:42:43.711Z,59.77
2019-04-29T17:45:21.872Z,61.90
2019-04-29T17:47:50.595Z,60.20
2019-04-29T17:50:33.235Z,63.03
2019-04-29T17:53:03.644Z,61.17
2019-04-29T17:55:38.672Z,63.97
2019-04-29T17:58:22.853Z,60.00
2019-04-29T18:01:02.968Z,69.07
2019-04-29T18:03:49.027Z,64.93
2019-04-29T18:06:27.786Z,70.77
2019-04-29T18:09:00.888Z,73.07
2019-04-29T18:11:31.836Z,63.20
2019-04-29T18:14:01.184Z,71.53
2019-04-29T18:16:32.143Z,64.83
2019-04-29T18:19:17.350Z,66.67
2019-04-29T18:22:04.343Z,62.13
2019-04-29T18:24:37.447Z,71.40
2019-04-29T18:27:11.572Z,64.67
2019-04-29T18:29:41.740Z,70.13
2019-04-29T18:32:11.937Z,70.43
2019-04-29T18:34:41.270Z,65.97
2019-04-29T18:37:10.613Z,75.00
2019-04-29T18:39:39.947Z,68.57
2019-04-29T18:42:10.352Z,77.30
2019-04-29T18:44:42.112Z,70.23
2019-04-29T18:47:20.007Z,74.30
2019-04-29T18:49:41.803Z,75.93
2019-04-29T18:52:11.493Z,68.73
2019-04-29T18:54:40.979Z,74.63
2019-04-29T18:57:10.320Z,75.83
2019-04-29T18:59:42.012Z,81.80
2019-04-29T19:02:10.684Z,76.30
2019-04-29T19:04:41.669Z,82.83
2019-04-29T19:07:10.996Z,76.57
2019-04-29T19:09:41.098Z,79.60
2019-04-29T19:12:10.603Z,84.43
2019-04-29T19:14:39.985Z,78.00
2019-04-29T19:17:09.588Z,77.53
2019-04-29T19:19:39.457Z,83.90
2019-04-29T19:22:09.482Z,85.20
2019-04-29T19:24:39.026Z,87.00
2019-04-29T19:27:09.964Z,86.00
2019-04-29T19:29:43.211Z,83.07
2019-04-29T19:32:10.673Z,91.10
2019-04-29T19:34:43.336Z,85.27
2019-04-29T19:37:11.077Z,84.87
2019-04-29T19:39:40.515Z,86.53
2019-04-29T19:42:09.863Z,82.30
2019-04-29T19:44:39.213Z,83.03
2019-04-29T19:47:10.973Z,83.83
2019-04-29T19:49:40.207Z,80.07
2019-04-29T19:52:10.598Z,80.57
2019-04-29T19:54:39.928Z,89.70
2019-04-29T19:57:09.444Z,88.07
2019-04-29T19:59:39.171Z,83.47
2019-04-29T20:02:11.102Z,83.37
2019-04-29T20:04:52.426Z,85.43
2019-04-29T20:07:20.561Z,87.87
2019-04-29T20:09:59.613Z,91.57
2019-04-29T20:12:21.836Z,89.77
2019-04-29T20:14:58.361Z,87.80
2019-04-29T20:17:31.262Z,88.00
2019-04-29T20:20:05.882Z,78.43
2019-04-29T20:22:37.283Z,81.57
2019-04-29T20:25:07.257Z,85.37
2019-04-29T20:27:37.624Z,77.73
2019-04-29T20:30:16.540Z,82.27
2019-04-29T20:32:39.825Z,76.83
2019-04-29T20:35:09.658Z,75.73
2019-04-29T20:37:39.289Z,84.17
2019-04-29T20:40:09.037Z,76.23
2019-04-29T20:42:40.497Z,81.20
2019-04-29T20:45:09.809Z,89.33
2019-04-29T20:47:41.925Z,82.03
2019-04-29T20:50:13.842Z,101.80
2019-04-29T20:52:43.837Z,72.93
2019-04-29T20:55:15.568Z,76.87
2019-04-29T20:57:47.863Z,78.80
2019-04-29T21:00:19.773Z,76.57
2019-04-29T21:02:48.907Z,74.13
2019-04-29T21:05:23.236Z,77.50
2019-04-29T21:07:49.212Z,80.33
2019-04-29T21:10:18.783Z,91.17
2019-04-29T21:12:52.420Z,80.77
2019-04-29T21:15:24.957Z,85.57
2019-04-29T21:17:57.082Z,90.70
2019-04-29T21:20:26.419Z,99.17
2019-04-29T21:22:59.333Z,112.20
2019-04-29T21:25:29.355Z,94.77
2019-04-29T21:28:02.090Z,115.90
2019-04-29T21:30:35.474Z,95.53
2019-04-29T21:32:59.997Z,89.57
2019-04-29T21:35:40.202Z,92.50
2019-04-29T21:38:28.374Z,111.63
2019-04-29T21:41:05.738Z,91.47
2019-04-29T21:43:47.011Z,80.97
2019-04-29T21:46:18.088Z,99.40
2019-04-29T21:48:45.673Z,132.27
2019-04-29T21:51:15.397Z,129.97
2019-04-29T21:53:46.162Z,96.80
2019-04-29T21:56:16.010Z,93.10
2019-04-29T21:58:45.499Z,98.40
2019-04-29T22:01:15.387Z,90.93
2019-04-29T22:03:46.392Z,104.10
2019-04-29T22:06:15.727Z,105.37
2019-04-29T22:08:45.318Z,104.87
2019-04-29T22:11:15.534Z,158.77
2019-04-29T22:13:45.821Z,131.37
2019-04-29T22:16:15.904Z,127.40
2019-04-29T22:18:51.795Z,151.60
2019-04-29T22:21:22.163Z,173.50
2019-04-29T22:23:50.959Z,195.13
2019-04-29T22:26:23.429Z,145.10
2019-04-29T22:28:53.326Z,124.83
2019-04-29T22:31:26.879Z,172.43
2019-04-29T22:33:52.719Z,172.43
2019-04-29T22:36:22.062Z,174.80
2019-04-29T22:38:52.136Z,140.33
2019-04-29T22:41:35.318Z,161.23
2019-04-29T22:44:06.297Z,172.17
2019-04-29T22:46:40.106Z,144.07
2019-04-29T22:49:07.295Z,134.97
2019-04-29T22:51:36.628Z,126.07
2019-04-29T22:54:05.951Z,134.80
2019-04-29T22:56:36.057Z,146.43
2019-04-29T22:59:05.859Z,122.57
2019-04-29T23:01:36.354Z,130.37
2019-04-29T23:04:09.652Z,124.33
2019-04-29T23:06:39.789Z,120.93
2019-04-29T23:09:12.080Z,117.60
2019-04-29T23:11:40.759Z,128.30
2019-04-29T23:14:10.384Z,109.50
2019-04-29T23:16:39.894Z,112.57
2019-04-29T23:19:14.010Z,101.43
2019-04-29T23:21:59.251Z,104.27
2019-04-29T23:24:42.371Z,107.33
2019-04-29T23:27:15.763Z,102.80
2019-04-29T23:29:43.316Z,105.53
2019-04-29T23:32:15.186Z,186.23
2019-04-29T23:34:44.840Z,103.07
2019-04-29T23:37:14.171Z,97.00
2019-04-29T23:39:43.492Z,97.03
2019-04-29T23:42:14.518Z,127.67
2019-04-29T23:44:44.177Z,85.57
2019-04-29T23:47:13.675Z,125.50
2019-04-29T23:49:44.515Z,86.53
2019-04-29T23:52:16.060Z,92.17
2019-04-29T23:54:48.407Z,77.40
2019-04-29T23:57:23.643Z,108.00
